createdAt,value
2018-05-23T00:00:30.147Z,100262
2018-05-23T00:02:56.159Z,100264
2018-05-23T00:05:22.212Z,100257
2018-05-23T00:07:48.210Z,100269
2018-05-23T00:10:14.227Z,100266
2018-05-23T00:12:40.233Z,100262
2018-05-23T00:15:06.301Z,100243
2018-05-23T00:17:32.307Z,100279
2018-05-23T00:19:58.325Z,100276
2018-05-23T00:22:24.331Z,100284
2018-05-23T00:24:50.350Z,100282
2018-05-23T00:27:16.359Z,100286
2018-05-23T00:29:42.373Z,100280
2018-05-23T00:32:08.376Z,100277
2018-05-23T00:34:34.387Z,100269
2018-05-23T00:37:00.384Z,100275
2018-05-23T00:39:26.411Z,100274
2018-05-23T00:41:52.418Z,100279
2018-05-23T00:44:18.452Z,100281
2018-05-23T00:46:44.454Z,100280
2018-05-23T00:49:10.467Z,100269
2018-05-23T00:51:36.462Z,100260
2018-05-23T00:54:02.478Z,100263
2018-05-23T00:56:28.474Z,100260
2018-05-23T00:58:54.487Z,100263
2018-05-23T01:01:20.487Z,100259
2018-05-23T01:03:46.498Z,100258
2018-05-23T01:06:12.495Z,100257
2018-05-23T01:08:38.506Z,100259
2018-05-23T01:11:04.521Z,100259
2018-05-23T01:13:30.546Z,100260
2018-05-23T01:15:56.546Z,100261
2018-05-23T01:18:22.567Z,100259
2018-05-23T01:20:48.567Z,100266
2018-05-23T01:23:14.586Z,100264
2018-05-23T01:25:40.633Z,100263
2018-05-23T01:28:06.628Z,100266
2018-05-23T01:30:32.626Z,100266
2018-05-23T01:32:58.620Z,100265
2018-05-23T01:35:24.630Z,100267
2018-05-23T01:37:50.643Z,100271
2018-05-23T01:40:16.669Z,100279
2018-05-23T01:42:42.687Z,100277
2018-05-23T01:45:08.717Z,100283
2018-05-23T01:47:34.716Z,100285
2018-05-23T01:50:00.739Z,100296
2018-05-23T01:52:26.743Z,100297
2018-05-23T01:54:52.766Z,100300
2018-05-23T01:57:18.771Z,100296
2018-05-23T01:59:44.795Z,100303
2018-05-23T02:02:10.793Z,100297
2018-05-23T02:04:36.812Z,100298
2018-05-23T02:07:02.817Z,100300
2018-05-23T02:09:28.828Z,100298
2018-05-23T02:11:54.828Z,100302
2018-05-23T02:14:20.851Z,100310
2018-05-23T02:16:46.851Z,100308
2018-05-23T02:19:12.882Z,100305
2018-05-23T02:21:38.890Z,100306
2018-05-23T02:24:04.915Z,100305
2018-05-23T02:26:30.935Z,100303
2018-05-23T02:28:56.958Z,100302
2018-05-23T02:31:22.963Z,100306
2018-05-23T02:33:48.978Z,100306
2018-05-23T02:36:14.980Z,100309
2018-05-23T02:38:41.008Z,100305
2018-05-23T02:41:07.013Z,100298
2018-05-23T02:43:33.011Z,100299
2018-05-23T02:45:59.023Z,100305
2018-05-23T02:48:25.051Z,100306
2018-05-23T02:50:51.074Z,100299
2018-05-23T02:53:17.067Z,100306
2018-05-23T02:55:43.091Z,100310
2018-05-23T02:58:09.095Z,100309
2018-05-23T03:00:35.119Z,100313
2018-05-23T03:03:01.170Z,100302
2018-05-23T03:05:27.165Z,100321
2018-05-23T03:07:53.170Z,100334
2018-05-23T03:10:19.193Z,100330
2018-05-23T03:12:45.182Z,100320
2018-05-23T03:15:11.197Z,100321
2018-05-23T03:17:37.206Z,100321
2018-05-23T03:20:03.227Z,100325
2018-05-23T03:22:29.235Z,100336
2018-05-23T03:24:55.336Z,100342
2018-05-23T03:27:21.343Z,100326
2018-05-23T03:29:47.380Z,100335
2018-05-23T03:32:13.385Z,100335
2018-05-23T03:34:39.395Z,100336
2018-05-23T03:37:05.394Z,100333
2018-05-23T03:39:31.415Z,100335
2018-05-23T03:41:57.412Z,100340
2018-05-23T03:44:23.428Z,100339
2018-05-23T03:46:49.426Z,100347
2018-05-23T03:49:15.461Z,100348
2018-05-23T03:51:41.456Z,100352
2018-05-23T03:54:07.474Z,100355
2018-05-23T03:56:33.471Z,100353
2018-05-23T03:58:59.515Z,100353
2018-05-23T04:01:25.526Z,100360
2018-05-23T04:03:51.523Z,100365
2018-05-23T04:06:17.539Z,100366
2018-05-23T04:08:43.533Z,100369
2018-05-23T04:11:09.673Z,100361
2018-05-23T04:13:35.662Z,100362
2018-05-23T04:16:01.691Z,100365
2018-05-23T04:18:27.691Z,100363
2018-05-23T04:20:53.702Z,100370
2018-05-23T04:23:19.698Z,100368
2018-05-23T04:25:45.722Z,100371
2018-05-23T04:28:11.836Z,100366
2018-05-23T04:30:37.937Z,100370
2018-05-23T04:33:03.931Z,100375
2018-05-23T04:35:29.952Z,100374
2018-05-23T04:37:55.988Z,100385
2018-05-23T04:40:22.026Z,100395
2018-05-23T04:42:48.033Z,100399
2018-05-23T04:45:14.100Z,100388
2018-05-23T04:47:40.109Z,100392
2018-05-23T04:50:06.128Z,100403
2018-05-23T04:52:32.127Z,100409
2018-05-23T04:54:58.159Z,100422
2018-05-23T04:57:24.162Z,100410
2018-05-23T04:59:50.183Z,100410
2018-05-23T05:02:16.186Z,100416
2018-05-23T05:04:42.214Z,100415
2018-05-23T05:07:08.212Z,100409
2018-05-23T05:09:34.236Z,100419
2018-05-23T05:12:00.356Z,100414
2018-05-23T05:14:26.351Z,100423
2018-05-23T05:16:52.374Z,100419
2018-05-23T05:19:18.370Z,100410
2018-05-23T05:21:44.411Z,100419
2018-05-23T05:24:10.481Z,100412
2018-05-23T05:26:36.547Z,100416
